createdAt,value
2018-02-08T00:00:00.572Z,66.30
2018-02-08T00:02:28.049Z,66.20
2018-02-08T00:04:55.584Z,66.20
2018-02-08T00:07:23.064Z,66.40
2018-02-08T00:09:51.300Z,66.60
2018-02-08T00:12:18.768Z,66.50
2018-02-08T00:14:46.358Z,66.60
2018-02-08T00:17:14.603Z,67.40
2018-02-08T00:19:42.926Z,67.10
2018-02-08T00:22:10.392Z,67.20
2018-02-08T00:24:37.865Z,67.50
2018-02-08T00:27:05.349Z,66.90
2018-02-08T00:29:33.124Z,66.60
2018-02-08T00:32:00.593Z,66.90
2018-02-08T00:34:28.192Z,66.80
2018-02-08T00:36:55.724Z,66.60
2018-02-08T00:39:23.160Z,67.30
2018-02-08T00:41:50.628Z,67.00
2018-02-08T00:44:18.862Z,67.30
2018-02-08T00:46:46.336Z,67.30
2018-02-08T00:49:13.804Z,67.30
2018-02-08T00:51:41.291Z,67.50
2018-02-08T00:54:08.822Z,66.80
2018-02-08T00:56:36.304Z,67.30
2018-02-08T00:59:03.836Z,67.30
2018-02-08T01:01:31.338Z,67.20
2018-02-08T01:03:58.855Z,67.20
2018-02-08T01:06:26.440Z,67.60
2018-02-08T01:08:54.677Z,67.30
2018-02-08T01:11:22.156Z,67.40
2018-02-08T01:13:50.394Z,68.70
2018-02-08T01:16:17.860Z,67.90
2018-02-08T01:18:46.915Z,67.60
2018-02-08T01:21:14.416Z,67.60
2018-02-08T01:23:41.895Z,67.80
2018-02-08T01:26:10.153Z,67.70
2018-02-08T01:28:37.640Z,67.70
2018-02-08T01:31:05.108Z,68.00
2018-02-08T01:33:32.578Z,68.30
2018-02-08T01:36:00.086Z,67.70
2018-02-08T01:38:27.573Z,67.90
2018-02-08T01:40:55.040Z,68.00
2018-02-08T01:43:22.509Z,68.20
2018-02-08T01:45:49.976Z,68.10
2018-02-08T01:48:17.475Z,67.90
2018-02-08T01:50:45.032Z,68.00
2018-02-08T01:53:12.503Z,67.00
2018-02-08T01:55:40.733Z,68.20
2018-02-08T01:58:08.434Z,68.20
2018-02-08T02:00:35.972Z,67.80
2018-02-08T02:03:03.487Z,68.10
2018-02-08T02:05:30.956Z,68.00
2018-02-08T02:07:58.430Z,68.00
2018-02-08T02:10:25.909Z,67.90
2018-02-08T02:12:53.372Z,68.20
2018-02-08T02:15:21.637Z,68.00
2018-02-08T02:17:49.208Z,67.80
2018-02-08T02:20:16.668Z,67.70
2018-02-08T02:22:44.900Z,68.10
2018-02-08T02:25:12.480Z,68.20
2018-02-08T02:27:39.959Z,68.10
2018-02-08T02:30:07.518Z,67.90
2018-02-08T02:32:35.789Z,67.50
2018-02-08T02:35:04.156Z,66.90
2018-02-08T02:37:31.623Z,67.50
2018-02-08T02:39:59.168Z,67.90
2018-02-08T02:42:26.653Z,67.50
2018-02-08T02:44:54.892Z,67.40
2018-02-08T02:47:22.360Z,67.30
2018-02-08T02:49:49.841Z,67.60
2018-02-08T02:52:18.088Z,67.40
2018-02-08T02:54:45.628Z,67.40
2018-02-08T02:57:13.099Z,67.00
2018-02-08T02:59:40.566Z,67.10
2018-02-08T03:02:09.547Z,66.90
2018-02-08T03:04:37.015Z,66.90
2018-02-08T03:07:04.486Z,66.80
2018-02-08T03:09:32.727Z,66.60
2018-02-08T03:12:00.303Z,66.50
2018-02-08T03:14:27.767Z,66.40
2018-02-08T03:16:55.251Z,66.20
2018-02-08T03:19:22.887Z,66.30
2018-02-08T03:21:50.358Z,66.30
2018-02-08T03:24:18.592Z,66.00
2018-02-08T03:26:46.073Z,66.00
2018-02-08T03:29:14.300Z,66.10
2018-02-08T03:31:41.793Z,66.00
2018-02-08T03:34:09.266Z,65.80
2018-02-08T03:36:36.815Z,65.80
2018-02-08T03:39:04.304Z,65.90
2018-02-08T03:41:32.540Z,65.40
2018-02-08T03:44:00.009Z,65.30
2018-02-08T03:46:27.471Z,65.30
2018-02-08T03:48:54.944Z,65.40
2018-02-08T03:51:23.188Z,65.30
2018-02-08T03:53:52.182Z,65.00
2018-02-08T03:56:20.412Z,65.10
2018-02-08T03:58:47.886Z,65.10
2018-02-08T04:01:15.377Z,65.50
2018-02-08T04:03:42.843Z,65.40
2018-02-08T04:06:10.308Z,65.10
2018-02-08T04:08:38.562Z,65.10
2018-02-08T04:11:06.026Z,65.10
2018-02-08T04:13:33.492Z,65.20
2018-02-08T04:16:01.734Z,65.50
2018-02-08T04:18:29.234Z,65.40
2018-02-08T04:20:57.487Z,65.70
2018-02-08T04:23:24.977Z,65.70
2018-02-08T04:25:52.453Z,65.80
2018-02-08T04:28:19.925Z,65.60
2018-02-08T04:30:47.392Z,65.70
2018-02-08T04:33:14.887Z,65.60
2018-02-08T04:35:43.150Z,65.70
2018-02-08T04:38:17.625Z,65.70
2018-02-08T04:40:57.011Z,65.60
2018-02-08T04:46:59.274Z,65.60
2018-02-08T04:49:26.760Z,65.80
2018-02-08T04:51:54.411Z,66.00
2018-02-08T04:54:21.881Z,65.90
2018-02-08T04:56:49.443Z,65.90
2018-02-08T04:59:16.992Z,66.50
2018-02-08T05:01:44.469Z,66.50
2018-02-08T05:04:12.774Z,66.70
2018-02-08T05:06:40.271Z,66.60
2018-02-08T05:09:07.739Z,67.00
2018-02-08T05:11:35.287Z,67.30
2018-02-08T05:14:02.762Z,67.70
2018-02-08T05:16:31.021Z,68.80
2018-02-08T05:18:58.496Z,67.70
2018-02-08T05:21:26.054Z,67.80
2018-02-08T05:23:54.374Z,67.90
2018-02-08T05:26:21.836Z,67.70
2018-02-08T05:28:49.336Z,68.10
2018-02-08T05:31:18.306Z,67.90
2018-02-08T05:33:45.764Z,67.90
2018-02-08T05:36:13.227Z,68.30
2018-02-08T05:38:40.688Z,68.10
2018-02-08T05:41:08.168Z,68.50
2018-02-08T05:43:36.419Z,68.30
2018-02-08T05:46:03.996Z,68.30
2018-02-08T05:48:31.555Z,68.00
2018-02-08T05:50:59.829Z,68.30
2018-02-08T05:53:27.302Z,68.70
2018-02-08T05:55:55.648Z,68.60
2018-02-08T05:58:23.111Z,68.40
2018-02-08T06:00:50.580Z,68.20
2018-02-08T06:03:18.818Z,68.50
2018-02-08T06:05:46.284Z,68.30
2018-02-08T06:08:13.856Z,68.40
2018-02-08T06:10:41.432Z,68.20
2018-02-08T06:13:09.080Z,68.50
2018-02-08T06:15:36.650Z,68.70
2018-02-08T06:18:04.166Z,68.50
2018-02-08T06:20:32.362Z,68.60
2018-02-08T06:22:59.831Z,68.50
2018-02-08T06:25:27.297Z,68.70
2018-02-08T06:27:54.776Z,68.80
2018-02-08T06:30:23.018Z,69.00
2018-02-08T06:32:50.591Z,69.00
2018-02-08T06:35:18.821Z,69.00
2018-02-08T06:37:46.291Z,69.00
2018-02-08T06:40:13.754Z,68.90
2018-02-08T06:42:41.224Z,69.00
2018-02-08T06:45:08.695Z,69.10
2018-02-08T06:47:37.061Z,69.60
2018-02-08T06:50:04.608Z,69.60
2018-02-08T06:52:32.165Z,69.60
2018-02-08T06:54:59.641Z,69.70
2018-02-08T06:57:27.139Z,69.90
2018-02-08T06:59:54.656Z,70.20
2018-02-08T07:02:22.126Z,70.00
2018-02-08T07:04:50.361Z,69.90
2018-02-08T07:07:17.929Z,69.80
2018-02-08T07:09:45.447Z,70.10
2018-02-08T07:12:12.944Z,70.20
2018-02-08T07:14:40.504Z,70.20
2018-02-08T07:17:07.965Z,70.10
2018-02-08T07:19:36.297Z,70.20
2018-02-08T07:22:03.762Z,70.10
2018-02-08T07:24:31.237Z,70.10
2018-02-08T07:26:58.706Z,70.40
2018-02-08T07:29:26.202Z,70.30
2018-02-08T07:31:54.447Z,70.60
2018-02-08T07:34:21.906Z,70.50
2018-02-08T07:36:49.425Z,70.30
2018-02-08T07:39:17.608Z,70.20
2018-02-08T07:41:45.082Z,70.30
2018-02-08T07:44:12.550Z,70.30
2018-02-08T07:46:40.033Z,70.00
2018-02-08T07:49:08.276Z,70.00
2018-02-08T07:51:35.755Z,69.90
2018-02-08T07:54:04.000Z,69.10
2018-02-08T07:56:31.532Z,69.10
2018-02-08T07:58:59.008Z,68.90
2018-02-08T08:01:26.538Z,68.50
2018-02-08T08:03:54.185Z,67.80
2018-02-08T08:06:21.707Z,67.00
2018-02-08T08:08:49.870Z,66.50
2018-02-08T08:11:17.432Z,65.60
2018-02-08T08:13:45.092Z,64.90
2018-02-08T08:16:13.343Z,64.40
2018-02-08T08:18:40.963Z,64.30
2018-02-08T08:21:09.194Z,63.70
2018-02-08T08:23:36.656Z,63.60
2018-02-08T08:26:04.241Z,63.60
2018-02-08T08:28:31.701Z,63.80
2018-02-08T08:30:59.962Z,62.90
2018-02-08T08:33:27.423Z,62.80
2018-02-08T08:35:55.658Z,61.80
2018-02-08T08:38:23.135Z,62.20
2018-02-08T08:40:51.222Z,62.50
2018-02-08T08:43:18.775Z,62.30
2018-02-08T08:45:46.240Z,61.60
2018-02-08T08:48:13.703Z,60.80
2018-02-08T08:50:41.939Z,61.40
2018-02-08T08:53:09.420Z,61.20
2018-02-08T08:55:36.891Z,60.50
2018-02-08T08:58:04.359Z,59.90
2018-02-08T09:00:32.604Z,60.50
2018-02-08T09:03:00.881Z,60.30
2018-02-08T09:05:28.354Z,58.30
2018-02-08T09:07:56.735Z,57.40
2018-02-08T09:10:24.973Z,57.90
2018-02-08T09:12:52.469Z,57.70
2018-02-08T09:15:19.933Z,56.70
2018-02-08T09:17:48.171Z,55.40
2018-02-08T09:20:15.646Z,55.30
2018-02-08T09:22:43.109Z,55.80
2018-02-08T09:25:10.597Z,54.90
2018-02-08T09:27:38.070Z,55.10
2018-02-08T09:30:05.542Z,55.20
2018-02-08T09:32:33.017Z,55.20
2018-02-08T09:35:00.497Z,55.60
2018-02-08T09:37:27.952Z,55.20
2018-02-08T09:39:56.199Z,53.30
2018-02-08T09:42:23.669Z,53.20
2018-02-08T09:44:52.650Z,52.70
2018-02-08T09:47:20.113Z,52.70
2018-02-08T09:49:47.588Z,51.70
2018-02-08T09:52:15.063Z,52.80
2018-02-08T09:54:42.536Z,51.90
2018-02-08T09:57:10.013Z,51.60
2018-02-08T09:59:37.485Z,51.90
2018-02-08T10:02:04.944Z,53.00
2018-02-08T10:04:32.633Z,51.10
2018-02-08T10:07:00.291Z,50.50
2018-02-08T10:09:27.765Z,48.60
2018-02-08T10:11:56.026Z,44.20
2018-02-08T10:14:23.476Z,44.00
2018-02-08T10:16:50.945Z,46.60
2018-02-08T10:19:18.409Z,46.00
2018-02-08T10:21:46.674Z,40.10
2018-02-08T10:24:14.124Z,40.10
2018-02-08T10:26:41.582Z,39.20
2018-02-08T10:29:09.066Z,37.50
2018-02-08T10:31:36.539Z,38.20
2018-02-08T10:34:04.003Z,34.30
2018-02-08T10:36:31.522Z,35.50
2018-02-08T10:38:59.776Z,37.60
2018-02-08T10:41:27.258Z,37.40
2018-02-08T10:43:55.572Z,33.50
2018-02-08T10:46:23.058Z,33.40
2018-02-08T10:48:50.739Z,29.90
2018-02-08T10:51:19.015Z,33.00
2018-02-08T10:53:47.278Z,32.40
2018-02-08T10:56:14.744Z,32.30
2018-02-08T10:58:42.219Z,33.50
2018-02-08T11:01:10.461Z,32.00
2018-02-08T11:03:37.935Z,31.90
2018-02-08T11:06:05.401Z,28.30
2018-02-08T11:08:33.665Z,31.20
2018-02-08T11:11:01.135Z,31.10
2018-02-08T11:13:29.405Z,28.80
2018-02-08T11:15:57.640Z,30.00
2018-02-08T11:18:25.119Z,29.90
2018-02-08T11:20:52.592Z,29.10
2018-02-08T11:23:20.869Z,33.10
2018-02-08T11:25:49.126Z,33.30
2018-02-08T11:28:16.596Z,33.30
2018-02-08T11:30:44.064Z,33.10
2018-02-08T11:33:11.543Z,31.00
2018-02-08T11:35:39.047Z,33.70
2018-02-08T11:38:06.508Z,33.00
2018-02-08T11:40:33.998Z,30.70
2018-02-08T11:43:02.271Z,27.80
2018-02-08T11:45:30.514Z,29.10
2018-02-08T11:47:58.017Z,29.50
2018-02-08T11:50:25.539Z,28.20
2018-02-08T11:52:53.033Z,27.70
2018-02-08T11:55:20.500Z,29.70
2018-02-08T11:57:48.079Z,28.20
2018-02-08T12:00:15.572Z,26.50
2018-02-08T12:02:43.079Z,28.60
2018-02-08T12:05:10.580Z,30.60
2018-02-08T12:07:38.144Z,29.30
2018-02-08T12:10:05.700Z,28.30
2018-02-08T12:12:33.183Z,25.00
2018-02-08T12:15:01.451Z,26.50
2018-02-08T12:17:28.997Z,26.40
2018-02-08T12:19:56.469Z,26.70
2018-02-08T12:22:24.732Z,28.50
2018-02-08T12:24:53.729Z,28.60
2018-02-08T12:27:21.202Z,28.50
2018-02-08T12:29:49.445Z,28.00
2018-02-08T12:32:17.008Z,27.90
2018-02-08T12:34:44.575Z,27.50
2018-02-08T12:37:12.107Z,23.70
2018-02-08T12:39:39.588Z,23.50
2018-02-08T12:42:07.828Z,22.70
2018-02-08T12:44:35.313Z,22.60
2018-02-08T12:47:02.857Z,24.10
2018-02-08T12:49:30.317Z,24.00
2018-02-08T12:51:57.808Z,24.50
2018-02-08T12:54:25.277Z,24.40
2018-02-08T12:56:52.835Z,23.90
2018-02-08T12:59:21.069Z,24.70
2018-02-08T13:01:48.644Z,25.10
2018-02-08T13:04:16.897Z,25.30
2018-02-08T13:06:44.367Z,25.20
2018-02-08T13:09:11.895Z,26.20
2018-02-08T13:11:39.371Z,27.40
2018-02-08T13:14:06.855Z,27.40
2018-02-08T13:16:35.176Z,26.50
2018-02-08T13:19:02.692Z,26.90
2018-02-08T13:21:30.164Z,27.20
2018-02-08T13:23:58.421Z,27.30
2018-02-08T13:26:25.892Z,27.20
2018-02-08T13:28:54.148Z,29.70
2018-02-08T13:31:37.427Z,29.60
2018-02-08T13:34:04.898Z,30.10
2018-02-08T13:36:32.408Z,31.00
2018-02-08T13:39:00.695Z,31.70
2018-02-08T13:41:28.110Z,31.60
2018-02-08T13:43:55.590Z,32.70
2018-02-08T13:46:23.815Z,33.80
2018-02-08T13:49:01.971Z,33.60
2018-02-08T13:51:32.212Z,33.50
2018-02-08T13:54:02.332Z,33.30
2018-02-08T13:56:43.685Z,33.20
2018-02-08T13:59:12.693Z,33.10
2018-02-08T14:01:44.394Z,33.10
2018-02-08T14:04:11.869Z,33.10
2018-02-08T14:06:39.341Z,33.50
2018-02-08T14:09:06.997Z,34.10
2018-02-08T14:11:34.455Z,34.20
2018-02-08T14:14:02.147Z,34.50
2018-02-08T14:16:31.184Z,35.30
2018-02-08T14:18:58.653Z,35.30
2018-02-08T14:21:26.112Z,35.90
2018-02-08T14:23:53.572Z,35.70
2018-02-08T14:26:21.032Z,36.40
2018-02-08T14:28:48.600Z,36.40
2018-02-08T14:31:16.160Z,36.50
2018-02-08T14:33:43.715Z,35.60
2018-02-08T14:36:11.173Z,35.10
2018-02-08T14:38:38.690Z,35.30
2018-02-08T14:41:06.360Z,35.40
2018-02-08T14:43:35.153Z,35.40
2018-02-08T14:46:02.731Z,35.70
2018-02-08T14:48:30.400Z,36.60
2018-02-08T14:50:58.019Z,36.90
2018-02-08T14:53:25.476Z,37.10
2018-02-08T14:55:53.077Z,37.20
2018-02-08T14:58:20.641Z,37.90
2018-02-08T15:00:48.108Z,38.20
2018-02-08T15:03:15.644Z,38.30
2018-02-08T15:05:43.159Z,38.40
2018-02-08T15:08:10.615Z,38.20
2018-02-08T15:10:38.088Z,38.60
2018-02-08T15:13:05.588Z,38.60
2018-02-08T15:15:33.172Z,38.60
2018-02-08T15:18:00.599Z,38.80
2018-02-08T15:20:28.156Z,39.30
2018-02-08T15:22:55.616Z,39.60
2018-02-08T15:25:23.186Z,39.90
2018-02-08T15:27:50.640Z,40.00
2018-02-08T15:30:18.119Z,40.70
2018-02-08T15:32:46.363Z,40.80
2018-02-08T15:35:13.881Z,40.90
2018-02-08T15:37:42.076Z,41.60
2018-02-08T15:40:09.559Z,41.50
2018-02-08T15:42:37.030Z,41.50
2018-02-08T15:45:05.261Z,42.40
2018-02-08T15:47:32.749Z,42.40
2018-02-08T15:50:00.205Z,42.70
2018-02-08T15:52:27.777Z,42.60
2018-02-08T15:54:56.057Z,43.40
2018-02-08T15:57:24.475Z,43.70
2018-02-08T15:59:51.945Z,43.60
2018-02-08T16:02:19.419Z,44.10
2018-02-08T16:04:46.881Z,44.90
2018-02-08T16:07:14.358Z,45.00
2018-02-08T16:09:42.616Z,45.40
2018-02-08T16:12:10.094Z,45.40
2018-02-08T16:14:38.357Z,46.00
2018-02-08T16:17:05.827Z,46.00
2018-02-08T16:19:34.065Z,46.50
2018-02-08T16:22:01.627Z,46.30
2018-02-08T16:24:29.192Z,46.70
2018-02-08T16:26:56.689Z,47.00
2018-02-08T16:29:24.162Z,47.60
2018-02-08T16:31:51.621Z,47.90
2018-02-08T16:34:19.144Z,48.00
2018-02-08T16:36:47.363Z,48.70
2018-02-08T16:39:14.828Z,48.60
2018-02-08T16:41:42.296Z,48.70
2018-02-08T16:44:09.818Z,48.90
2018-02-08T16:46:37.281Z,49.00
2018-02-08T16:49:04.892Z,49.30
2018-02-08T16:51:32.364Z,49.40
2018-02-08T16:53:59.833Z,49.70
2018-02-08T16:56:28.101Z,50.30
2018-02-08T16:58:55.565Z,50.30
2018-02-08T17:01:23.815Z,50.80
2018-02-08T17:03:51.298Z,50.80
2018-02-08T17:06:19.535Z,50.90
2018-02-08T17:08:46.988Z,50.90
2018-02-08T17:11:15.220Z,51.70
2018-02-08T17:13:42.694Z,51.70
2018-02-08T17:16:10.147Z,52.10
2018-02-08T17:18:37.632Z,52.10
2018-02-08T17:21:05.087Z,52.40
2018-02-08T17:23:32.662Z,52.30
2018-02-08T17:26:00.232Z,52.30
2018-02-08T17:28:27.688Z,52.40
2018-02-08T17:30:55.916Z,53.20
2018-02-08T17:33:23.499Z,52.60
2018-02-08T17:35:50.964Z,52.90
2018-02-08T17:38:18.545Z,53.00
2018-02-08T17:40:46.773Z,53.20
2018-02-08T17:43:14.267Z,53.20
2018-02-08T17:45:41.776Z,53.40
2018-02-08T17:48:09.305Z,53.40
2018-02-08T17:50:37.521Z,53.60
2018-02-08T17:53:05.004Z,53.60
2018-02-08T17:55:32.588Z,53.50
2018-02-08T17:58:00.913Z,54.00
2018-02-08T18:00:28.431Z,54.00
2018-02-08T18:02:55.966Z,54.40
2018-02-08T18:05:23.507Z,54.50
2018-02-08T18:07:50.969Z,55.50
2018-02-08T18:10:18.448Z,54.80
2018-02-08T18:12:47.634Z,55.50
2018-02-08T18:15:15.178Z,55.50
2018-02-08T18:17:42.678Z,55.70
2018-02-08T18:20:10.199Z,55.60
2018-02-08T18:22:37.673Z,55.80
2018-02-08T18:25:05.890Z,55.80
2018-02-08T18:27:33.384Z,55.90
2018-02-08T18:30:00.942Z,56.10
2018-02-08T18:32:28.413Z,56.40
2018-02-08T18:34:55.886Z,56.40
2018-02-08T18:37:24.130Z,56.50
2018-02-08T18:39:51.626Z,56.50
2018-02-08T18:42:19.865Z,57.10
2018-02-08T18:44:47.333Z,57.00
2018-02-08T18:47:14.802Z,57.30
2018-02-08T18:49:43.048Z,57.50
2018-02-08T18:52:10.540Z,57.40
2018-02-08T18:54:38.045Z,57.30
2018-02-08T18:57:05.517Z,57.40
2018-02-08T18:59:33.007Z,57.30
2018-02-08T19:02:01.261Z,57.70
2018-02-08T19:04:28.718Z,57.60
2018-02-08T19:06:56.187Z,58.10
2018-02-08T19:09:23.728Z,58.00
2018-02-08T19:11:51.200Z,58.10
2018-02-08T19:14:18.762Z,57.80
2018-02-08T19:16:46.254Z,57.90
2018-02-08T19:19:13.813Z,58.40
2018-02-08T19:21:41.311Z,58.20
2018-02-08T19:24:08.779Z,58.90
2018-02-08T19:26:36.294Z,58.80
2018-02-08T19:29:04.504Z,59.00
2018-02-08T19:31:31.980Z,58.90
2018-02-08T19:33:59.465Z,59.20
2018-02-08T19:36:26.918Z,59.20
2018-02-08T19:38:54.393Z,60.30
2018-02-08T19:41:22.007Z,60.00
2018-02-08T19:43:49.483Z,60.10
2018-02-08T19:46:17.705Z,59.80
2018-02-08T19:48:45.190Z,59.80
2018-02-08T19:51:12.640Z,60.50
2018-02-08T19:53:40.117Z,60.50
2018-02-08T19:56:07.821Z,60.70
2018-02-08T19:58:35.288Z,61.00
2018-02-08T20:01:02.752Z,60.90
2018-02-08T20:03:30.231Z,61.50
2018-02-08T20:05:57.782Z,61.50
2018-02-08T20:08:25.248Z,61.20
2018-02-08T20:10:53.308Z,61.50
2018-02-08T20:13:21.049Z,62.10
2018-02-08T20:15:48.544Z,62.20
2018-02-08T20:18:16.016Z,62.30
2018-02-08T20:20:44.264Z,61.90
2018-02-08T20:23:11.735Z,61.90
2018-02-08T20:25:44.123Z,62.30
2018-02-08T20:28:11.596Z,62.60
2018-02-08T20:30:39.069Z,63.20
2018-02-08T20:33:06.538Z,63.00
2018-02-08T20:35:34.003Z,62.70
2018-02-08T20:38:01.482Z,62.80
2018-02-08T20:40:29.383Z,62.90
2018-02-08T20:46:01.249Z,62.70
2018-02-08T20:48:29.501Z,63.00
2018-02-08T20:50:56.972Z,62.90
2018-02-08T20:53:24.451Z,62.60
2018-02-08T20:55:52.815Z,62.60
2018-02-08T20:58:20.235Z,62.50
2018-02-08T21:00:47.723Z,62.70
2018-02-08T21:03:15.277Z,62.60
2018-02-08T21:05:42.924Z,61.90
2018-02-08T21:08:10.397Z,61.30
2018-02-08T21:10:37.944Z,61.40
2018-02-08T21:13:05.508Z,61.20
2018-02-08T21:15:33.015Z,60.90
2018-02-08T21:18:00.522Z,60.60
2018-02-08T21:20:28.081Z,60.20
2018-02-08T21:22:55.562Z,60.10
2018-02-08T21:25:23.783Z,60.00
2018-02-08T21:27:51.270Z,59.90
2018-02-08T21:30:18.756Z,59.80
2018-02-08T21:32:46.996Z,60.40
2018-02-08T21:35:14.455Z,60.40
2018-02-08T21:37:42.012Z,60.60
2018-02-08T21:40:09.480Z,60.40
2018-02-08T21:42:37.032Z,60.70
2018-02-08T21:45:04.536Z,60.80
2018-02-08T21:47:32.000Z,60.70
2018-02-08T21:49:59.478Z,60.60
2018-02-08T21:52:26.954Z,60.60
2018-02-08T21:54:54.415Z,60.60
2018-02-08T21:57:21.896Z,60.90
2018-02-08T21:59:49.355Z,60.60
2018-02-08T22:02:17.595Z,60.50
2018-02-08T22:04:45.069Z,61.30
2018-02-08T22:07:12.620Z,60.30
2018-02-08T22:09:40.109Z,60.30
2018-02-08T22:12:08.362Z,60.40
2018-02-08T22:14:36.686Z,60.50
2018-02-08T22:17:04.893Z,61.10
2018-02-08T22:19:32.373Z,60.70
2018-02-08T22:21:59.949Z,60.60
2018-02-08T22:24:27.429Z,61.50
2018-02-08T22:26:55.711Z,60.80
2018-02-08T22:29:23.242Z,60.90
2018-02-08T22:31:50.700Z,60.90
2018-02-08T22:34:18.948Z,60.90
2018-02-08T22:36:46.412Z,60.90
2018-02-08T22:39:15.041Z,61.20
2018-02-08T22:41:42.552Z,61.10
2018-02-08T22:44:10.217Z,61.20
2018-02-08T22:46:37.713Z,60.90
2018-02-08T22:49:05.225Z,60.90
2018-02-08T22:51:32.689Z,61.10
2018-02-08T22:54:00.155Z,61.20
2018-02-08T22:56:28.417Z,61.10
2018-02-08T22:58:55.880Z,61.10
2018-02-08T23:01:24.120Z,61.40
2018-02-08T23:03:51.615Z,61.30
2018-02-08T23:06:19.881Z,61.40
2018-02-08T23:08:47.351Z,61.30
2018-02-08T23:11:15.589Z,62.50
2018-02-08T23:13:43.061Z,61.60
2018-02-08T23:16:10.629Z,61.60
2018-02-08T23:18:38.117Z,61.60
2018-02-08T23:21:05.635Z,61.80
2018-02-08T23:23:33.888Z,61.90
2018-02-08T23:26:01.472Z,61.90
2018-02-08T23:28:28.985Z,62.00
2018-02-08T23:30:56.467Z,61.80
2018-02-08T23:33:23.945Z,61.80
2018-02-08T23:35:51.408Z,61.90
2018-02-08T23:38:18.886Z,61.90
2018-02-08T23:40:46.423Z,62.20
2018-02-08T23:43:13.986Z,62.10
2018-02-08T23:45:42.262Z,63.80
2018-02-08T23:48:09.742Z,63.10
2018-02-08T23:50:37.979Z,63.20
2018-02-08T23:53:05.457Z,63.30
2018-02-08T23:55:32.907Z,63.20
2018-02-08T23:58:01.144Z,63.20
